Time;durP1;ratioP1;P1;durP2;ratioP2;P2;SDS_P1;SDS_P2;PMS_P1;PMS_P2;Temp;Humidity;BMP_temperature;BMP_pressure;BME280_temperature;BME280_humidity;BME280_pressure;Samples;Min_cycle;Max_cycle;Signal;HPM_P1;HPM_P2
2023/01/10 00:00:35;;;;;;;78.55;20.83;;;;;;;;;;5047153;28;20025;-82
2023/01/10 00:03:02;;;;;;;87.82;20.58;;;;;;;;;;5047258;28;20029;-83
2023/01/10 00:05:28;;;;;;;72.78;20.92;;;;;;;;;;5040904;28;20060;-81
2023/01/10 00:07:53;;;;;;;81.18;22.27;;;;;;;;;;5046835;28;20033;-83
2023/01/10 00:10:18;;;;;;;73.65;21.02;;;;;;;;;;5039397;28;20044;-82
2023/01/10 00:15:33;;;;;;;85.97;21.63;;;;;;;;;;5040970;28;20033;-82
2023/01/10 00:17:58;;;;;;;87.63;22.60;;;;;;;;;;5035544;28;20044;-83
2023/01/10 00:20:23;;;;;;;82.13;22.15;;;;;;;;;;5035747;28;20455;-82
2023/01/10 00:22:52;;;;;;;83.75;22.27;;;;;;;;;;5035280;28;20479;-82
2023/01/10 00:25:20;;;;;;;82.70;20.65;;;;;;;;;;5037795;28;20040;-82
2023/01/10 00:27:54;;;;;;;86.55;22.60;;;;;;;;;;5036252;28;20069;-82
2023/01/10 00:30:19;;;;;;;91.35;23.27;;;;;;;;;;5036911;28;20025;-82
2023/01/10 00:32:45;;;;;;;95.13;22.85;;;;;;;;;;5020549;28;20140;-82
2023/01/10 00:35:11;;;;;;;79.88;22.08;;;;;;;;;;5051448;28;20038;-83
2023/01/10 00:37:37;;;;;;;81.20;22.98;;;;;;;;;;5035284;28;20068;-82
2023/01/10 00:40:06;;;;;;;86.53;22.85;;;;;;;;;;5018393;28;20056;-82
2023/01/10 00:45:18;;;;;;;88.53;21.55;;;;;;;;;;5035112;28;20040;-82
2023/01/10 00:47:44;;;;;;;109.28;22.45;;;;;;;;;;5035901;28;20116;-82
2023/01/10 00:50:11;;;;;;;94.72;23.92;;;;;;;;;;5036191;28;20437;-82
2023/01/10 00:52:36;;;;;;;99.05;24.83;;;;;;;;;;5036109;28;20069;-82
2023/01/10 00:55:04;;;;;;;85.05;25.15;;;;;;;;;;5027176;28;20041;-83
2023/01/10 00:57:30;;;;;;;87.50;21.65;;;;;;;;;;5034829;28;20040;-82
2023/01/10 00:59:55;;;;;;;102.72;23.13;;;;;;;;;;5035970;28;20397;-83
2023/01/10 01:02:21;;;;;;;117.45;22.70;;;;;;;;;;5036105;28;20040;-83
2023/01/10 01:04:46;;;;;;;103.00;21.85;;;;;;;;;;5018188;28;20022;-83
2023/01/10 01:07:12;;;;;;;84.22;21.58;;;;;;;;;;5017703;28;20112;-83
2023/01/10 01:10:25;;;;;;;88.35;23.17;;;;;;;;;;5034614;28;20064;-82
2023/01/10 01:12:23;;;;;;;86.13;22.58;;;;;;;;;;5035411;28;20053;-82
2023/01/10 01:14:48;;;;;;;100.63;22.20;;;;;;;;;;5039614;28;20035;-83
2023/01/10 01:17:14;;;;;;;113.13;21.67;;;;;;;;;;5034467;28;20061;-82
2023/01/10 01:19:40;;;;;;;89.32;23.88;;;;;;;;;;5035361;28;20037;-82
2023/01/10 01:22:05;;;;;;;76.45;21.25;;;;;;;;;;5033960;28;20441;-82
2023/01/10 01:24:30;;;;;;;114.03;21.27;;;;;;;;;;5017941;28;20422;-83
2023/01/10 01:26:56;;;;;;;120.25;21.23;;;;;;;;;;5034062;28;20128;-82
2023/01/10 01:29:21;;;;;;;87.03;21.63;;;;;;;;;;5034946;28;20045;-83
2023/01/10 01:31:47;;;;;;;87.65;20.55;;;;;;;;;;5034080;28;20036;-83
2023/01/10 01:34:13;;;;;;;80.70;21.08;;;;;;;;;;5017868;28;20501;-82
2023/01/10 01:36:38;;;;;;;84.97;21.15;;;;;;;;;;5043222;28;20565;-83
2023/01/10 01:39:05;;;;;;;93.82;22.17;;;;;;;;;;5033781;28;20136;-83
2023/01/10 01:44:16;;;;;;;70.13;20.58;;;;;;;;;;5034968;28;20028;-83
2023/01/10 01:46:41;;;;;;;102.25;21.77;;;;;;;;;;5033906;28;20065;-81
2023/01/10 01:49:11;;;;;;;79.68;21.85;;;;;;;;;;5033296;28;20056;-80
2023/01/10 01:51:36;;;;;;;72.13;21.70;;;;;;;;;;5033573;28;20037;-81
2023/01/10 01:54:06;;;;;;;105.82;23.23;;;;;;;;;;5033588;28;20029;-80
2023/01/10 01:56:44;;;;;;;79.70;21.77;;;;;;;;;;5048601;28;20033;-81
2023/01/10 01:59:15;;;;;;;84.78;22.38;;;;;;;;;;5035341;28;20029;-80
2023/01/10 02:01:41;;;;;;;;;;;;;;;;;;5034071;28;20384;-81
2023/01/10 02:04:15;;;;;;;75.03;20.88;;;;;;;;;;5033053;28;19924;-82
2023/01/10 02:06:41;;;;;;;92.22;23.23;;;;;;;;;;5034394;28;20451;-82
2023/01/10 02:09:25;;;;;;;98.57;24.02;;;;;;;;;;5033479;28;20029;-81
2023/01/10 02:11:51;;;;;;;84.28;22.35;;;;;;;;;;5018590;28;20084;-80
2023/01/10 02:14:16;;;;;;;95.72;23.40;;;;;;;;;;5033312;28;20037;-81
2023/01/10 02:16:42;;;;;;;89.70;24.55;;;;;;;;;;5044293;28;20034;-79
2023/01/10 02:19:17;;;;;;;107.47;24.83;;;;;;;;;;5035310;28;20490;-82
2023/01/10 02:22:15;;;;;;;113.30;26.17;;;;;;;;;;5033279;28;20038;-81
2023/01/10 02:25:05;;;;;;;93.75;23.98;;;;;;;;;;4997106;28;20501;-82
2023/01/10 02:27:38;;;;;;;101.00;25.57;;;;;;;;;;5034090;28;20037;-81
2023/01/10 02:30:09;;;;;;;99.15;23.42;;;;;;;;;;5016639;28;20448;-81
2023/01/10 02:32:38;;;;;;;85.03;24.45;;;;;;;;;;5033201;28;20509;-81
2023/01/10 02:35:25;;;;;;;99.78;24.70;;;;;;;;;;5016377;28;20037;-81
2023/01/10 02:38:27;;;;;;;104.85;23.85;;;;;;;;;;5043773;28;20116;-82
2023/01/10 02:41:01;;;;;;;120.95;25.08;;;;;;;;;;5016303;28;20037;-81
2023/01/10 02:43:30;;;;;;;93.72;24.02;;;;;;;;;;5034228;28;20032;-82
2023/01/10 02:46:01;;;;;;;91.20;24.08;;;;;;;;;;5033184;28;20452;-82
2023/01/10 02:48:27;;;;;;;106.45;24.85;;;;;;;;;;5032745;28;20034;-82
2023/01/10 02:50:57;;;;;;;94.10;25.05;;;;;;;;;;5032994;28;20307;-82
2023/01/10 02:53:24;;;;;;;84.47;23.23;;;;;;;;;;5032843;28;20459;-82
2023/01/10 02:56:11;;;;;;;86.13;24.05;;;;;;;;;;5016421;28;20041;-82
2023/01/10 02:58:55;;;;;;;92.35;26.25;;;;;;;;;;5042961;28;20041;-83
2023/01/10 03:01:45;;;;;;;83.70;23.85;;;;;;;;;;5033674;28;20091;-82
2023/01/10 03:04:44;;;;;;;75.20;22.45;;;;;;;;;;5032591;28;20034;-82
2023/01/10 03:07:45;;;;;;;91.55;25.90;;;;;;;;;;5033799;28;20348;-82
2023/01/10 03:10:10;;;;;;;76.95;22.73;;;;;;;;;;5016210;28;20463;-82
2023/01/10 03:12:50;;;;;;;78.60;22.92;;;;;;;;;;5033962;28;20022;-82
2023/01/10 03:15:17;;;;;;;80.13;23.75;;;;;;;;;;5032641;28;20479;-82
2023/01/10 03:17:43;;;;;;;70.50;23.10;;;;;;;;;;5023190;28;20052;-83
2023/01/10 03:20:10;;;;;;;77.22;26.55;;;;;;;;;;5039202;28;20041;-82
2023/01/10 03:22:37;;;;;;;79.18;24.90;;;;;;;;;;5033932;28;20041;-82
2023/01/10 03:25:06;;;;;;;80.93;24.73;;;;;;;;;;5032500;28;20436;-83
2023/01/10 03:27:43;;;;;;;69.88;22.23;;;;;;;;;;5032884;28;20116;-82
2023/01/10 03:30:30;;;;;;;59.42;22.20;;;;;;;;;;5032442;28;20040;-83
2023/01/10 03:32:56;;;;;;;64.53;20.27;;;;;;;;;;5032623;28;20091;-82
2023/01/10 03:35:22;;;;;;;66.38;21.92;;;;;;;;;;5032441;28;20021;-82
2023/01/10 03:37:56;;;;;;;64.28;21.30;;;;;;;;;;5015948;28;20127;-82
2023/01/10 03:40:32;;;;;;;57.38;19.45;;;;;;;;;;5042776;28;20341;-82
2023/01/10 03:45:58;;;;;;;52.30;21.02;;;;;;;;;;5036858;28;20036;-82
2023/01/10 03:48:23;;;;;;;55.33;19.55;;;;;;;;;;5035980;28;20044;-82
2023/01/10 03:50:49;;;;;;;51.42;21.15;;;;;;;;;;5036095;28;20384;-82
2023/01/10 03:53:14;;;;;;;62.70;28.73;;;;;;;;;;5019235;28;20426;-81
2023/01/10 03:55:40;;;;;;;66.72;27.63;;;;;;;;;;5035788;28;20057;-81
2023/01/10 03:58:06;;;;;;;50.53;21.55;;;;;;;;;;5019406;28;20040;-82
2023/01/10 04:00:31;;;;;;;49.90;21.02;;;;;;;;;;5053782;28;20459;-83
2023/01/10 04:02:58;;;;;;;59.47;27.02;;;;;;;;;;5037900;28;20030;-82
2023/01/10 04:05:23;;;;;;;53.67;21.02;;;;;;;;;;5035789;28;20073;-83
2023/01/10 04:07:49;;;;;;;38.55;16.58;;;;;;;;;;5035791;28;20422;-83
2023/01/10 04:10:15;;;;;;;41.85;17.80;;;;;;;;;;5036701;28;20044;-82
2023/01/10 04:12:41;;;;;;;41.90;17.60;;;;;;;;;;5035406;28;20060;-83
2023/01/10 04:15:07;;;;;;;43.97;17.98;;;;;;;;;;5036866;28;20033;-82
2023/01/10 04:17:32;;;;;;;41.13;18.00;;;;;;;;;;5035382;28;20475;-82
2023/01/10 04:19:58;;;;;;;46.78;18.85;;;;;;;;;;5041940;28;20037;-82
2023/01/10 04:22:23;;;;;;;42.65;19.05;;;;;;;;;;5038741;28;20037;-82
2023/01/10 04:24:50;;;;;;;49.60;23.60;;;;;;;;;;5018919;28;20033;-82
2023/01/10 04:27:16;;;;;;;59.55;23.17;;;;;;;;;;5036641;28;20116;-82
2023/01/10 04:29:42;;;;;;;57.80;22.45;;;;;;;;;;5036324;28;20132;-81
2023/01/10 04:32:07;;;;;;;56.47;22.98;;;;;;;;;;5036748;28;20037;-82
2023/01/10 04:34:32;;;;;;;59.65;26.80;;;;;;;;;;5037372;28;20496;-82
2023/01/10 04:36:58;;;;;;;56.38;25.35;;;;;;;;;;5036791;28;20065;-83
2023/01/10 04:39:23;;;;;;;53.25;23.60;;;;;;;;;;5036382;28;20101;-81
2023/01/10 04:41:49;;;;;;;57.50;23.63;;;;;;;;;;5038446;28;20041;-81
2023/01/10 04:44:14;;;;;;;52.63;22.20;;;;;;;;;;5035940;28;20094;-82
2023/01/10 04:46:40;;;;;;;55.50;22.00;;;;;;;;;;5036333;28;20061;-81
2023/01/10 04:49:06;;;;;;;55.00;21.60;;;;;;;;;;5035234;28;20455;-81
2023/01/10 04:51:31;;;;;;;48.85;22.70;;;;;;;;;;5034730;28;20041;-84
2023/01/10 04:53:58;;;;;;;62.05;27.15;;;;;;;;;;5035080;28;20038;-81
2023/01/10 04:56:24;;;;;;;70.53;28.40;;;;;;;;;;5034403;28;20069;-81
2023/01/10 04:58:49;;;;;;;73.93;32.58;;;;;;;;;;5036114;28;20428;-81
2023/01/10 05:01:20;;;;;;;58.00;25.60;;;;;;;;;;5042027;28;20037;-81
2023/01/10 05:03:53;;;;;;;54.38;22.80;;;;;;;;;;5042010;28;20080;-81
2023/01/10 05:06:19;;;;;;;51.80;21.42;;;;;;;;;;5034966;28;20041;-82
2023/01/10 05:08:44;;;;;;;51.15;21.67;;;;;;;;;;5040575;28;20033;-83
2023/01/10 05:11:10;;;;;;;74.15;27.58;;;;;;;;;;5042563;28;20689;-81
2023/01/10 05:13:36;;;;;;;96.57;34.08;;;;;;;;;;5027648;28;20025;-80
2023/01/10 05:16:01;;;;;;;99.45;33.97;;;;;;;;;;5042998;28;20089;-81
2023/01/10 05:18:27;;;;;;;84.03;33.10;;;;;;;;;;5044868;28;20025;-83
2023/01/10 05:21:01;;;;;;;74.35;30.98;;;;;;;;;;5045205;28;20083;-82
2023/01/10 05:23:28;;;;;;;80.88;31.02;;;;;;;;;;5051681;28;20017;-82
2023/01/10 05:25:53;;;;;;;59.22;26.40;;;;;;;;;;5035576;28;20033;-82
2023/01/10 05:28:19;;;;;;;54.40;25.52;;;;;;;;;;5017942;28;20466;-81
2023/01/10 05:30:45;;;;;;;68.75;28.42;;;;;;;;;;5034268;28;20124;-86
2023/01/10 05:33:10;;;;;;;65.95;27.65;;;;;;;;;;5036326;28;20060;-86
2023/01/10 05:35:35;;;;;;;68.68;31.45;;;;;;;;;;5037268;28;20044;-87
2023/01/10 05:38:01;;;;;;;65.90;30.92;;;;;;;;;;5024201;28;20034;-85
2023/01/10 05:40:26;;;;;;;71.90;31.52;;;;;;;;;;5014822;28;20080;-86
2023/01/10 05:42:52;;;;;;;71.55;31.55;;;;;;;;;;5031300;28;20039;-87
2023/01/10 05:45:18;;;;;;;71.28;33.08;;;;;;;;;;5009193;28;20052;-87
2023/01/10 05:47:44;;;;;;;71.55;32.53;;;;;;;;;;5035742;28;20715;-85
2023/01/10 05:50:11;;;;;;;69.63;31.75;;;;;;;;;;5025241;28;20112;-87
2023/01/10 05:52:36;;;;;;;69.93;31.73;;;;;;;;;;5029234;28;20124;-87
2023/01/10 05:55:09;;;;;;;73.13;32.53;;;;;;;;;;5043628;28;20053;-88
2023/01/10 05:57:35;;;;;;;87.13;39.83;;;;;;;;;;5051428;28;20285;-88
2023/01/10 06:00:07;;;;;;;97.93;46.38;;;;;;;;;;5036660;28;20123;-89
2023/01/10 06:05:41;;;;;;;101.53;40.22;;;;;;;;;;5017194;28;20122;-82
2023/01/10 06:08:08;;;;;;;95.13;41.17;;;;;;;;;;5043368;28;20064;-83
2023/01/10 06:10:34;;;;;;;103.20;46.65;;;;;;;;;;5022199;28;20037;-82
2023/01/10 06:13:00;;;;;;;96.35;44.55;;;;;;;;;;5030439;28;20099;-83
2023/01/10 06:15:26;;;;;;;95.35;43.80;;;;;;;;;;5027679;28;20564;-84
2023/01/10 06:17:52;;;;;;;85.45;41.60;;;;;;;;;;5029363;28;20042;-84
2023/01/10 06:20:21;;;;;;;78.50;36.05;;;;;;;;;;5026665;28;20045;-83
2023/01/10 06:22:47;;;;;;;74.82;35.60;;;;;;;;;;5019192;28;20059;-84
2023/01/10 06:25:13;;;;;;;83.70;37.97;;;;;;;;;;5029747;28;20068;-84
2023/01/10 06:27:41;;;;;;;76.35;35.63;;;;;;;;;;5007899;28;20127;-83
2023/01/10 06:30:08;;;;;;;71.15;33.15;;;;;;;;;;5007818;28;20700;-84
2023/01/10 06:32:35;;;;;;;80.20;36.35;;;;;;;;;;5030755;28;20041;-82
2023/01/10 06:35:00;;;;;;;84.90;39.83;;;;;;;;;;5024133;28;20038;-84
2023/01/10 06:37:50;;;;;;;99.78;42.40;;;;;;;;;;5031310;28;20370;-83
2023/01/10 06:40:16;;;;;;;98.50;41.33;;;;;;;;;;5034760;28;20036;-84
2023/01/10 06:42:42;;;;;;;82.88;36.17;;;;;;;;;;5032795;28;20330;-84
2023/01/10 06:45:32;;;;;;;76.20;35.60;;;;;;;;;;5046577;28;20033;-83
2023/01/10 06:48:01;;;;;;;;;;;;;;;;;;5039276;28;20483;-83
2023/01/10 06:50:39;;;;;;;82.37;37.03;;;;;;;;;;5027935;28;19924;-83
2023/01/10 06:53:25;;;;;;;87.50;37.58;;;;;;;;;;5020118;28;20049;-86
2023/01/10 06:56:08;;;;;;;84.70;40.45;;;;;;;;;;5013974;28;20038;-88
2023/01/10 06:58:37;;;;;;;91.57;42.80;;;;;;;;;;4985006;28;20058;-87
2023/01/10 07:01:15;;;;;;;86.78;39.00;;;;;;;;;;5026588;28;20056;-83
2023/01/10 07:03:41;;;;;;;86.75;39.28;;;;;;;;;;5049477;28;20025;-84
2023/01/10 07:06:09;;;;;;;87.38;42.55;;;;;;;;;;5005888;28;20041;-83
2023/01/10 07:08:43;;;;;;;;;;;;;;;;;;5028280;28;20388;-82
2023/01/10 07:11:16;;;;;;;102.47;46.28;;;;;;;;;;5008228;28;19917;-88
2023/01/10 07:13:42;;;;;;;99.68;48.90;;;;;;;;;;5025681;28;20030;-80
2023/01/10 07:16:13;;;;;;;99.03;48.58;;;;;;;;;;5019897;28;20048;-84
2023/01/10 07:22:17;;;;;;;87.15;41.88;;;;;;;;;;5024412;28;20025;-82
2023/01/10 07:24:42;;;;;;;100.25;44.47;;;;;;;;;;5001155;28;20102;-82
2023/01/10 07:27:08;;;;;;;106.22;47.80;;;;;;;;;;5034092;28;20101;-81
2023/01/10 07:29:36;;;;;;;107.15;47.88;;;;;;;;;;5026724;28;20061;-84
2023/01/10 07:32:01;;;;;;;104.50;45.60;;;;;;;;;;5030047;28;20029;-81
2023/01/10 07:34:27;;;;;;;102.75;46.08;;;;;;;;;;5025447;28;20038;-81
2023/01/10 07:36:52;;;;;;;105.65;44.40;;;;;;;;;;5025621;28;20038;-81
2023/01/10 07:39:22;;;;;;;98.88;41.25;;;;;;;;;;5057707;28;20382;-83
2023/01/10 07:41:52;;;;;;;85.95;36.55;;;;;;;;;;5018259;28;20064;-82
2023/01/10 07:44:17;;;;;;;86.28;40.30;;;;;;;;;;5025108;28;20069;-81
2023/01/10 07:46:43;;;;;;;90.20;40.40;;;;;;;;;;5020563;28;20053;-80
2023/01/10 07:49:08;;;;;;;84.55;37.80;;;;;;;;;;5018342;28;20108;-79
2023/01/10 07:51:34;;;;;;;100.35;48.17;;;;;;;;;;5027505;28;20444;-81
2023/01/10 07:54:03;;;;;;;100.60;46.92;;;;;;;;;;5021821;28;20029;-81
2023/01/10 07:56:40;;;;;;;102.32;47.42;;;;;;;;;;5037830;28;20034;-82
2023/01/10 07:59:06;;;;;;;115.47;51.55;;;;;;;;;;5033969;28;20041;-81
2023/01/10 08:01:35;;;;;;;98.30;46.65;;;;;;;;;;5004773;28;20025;-81
2023/01/10 08:04:04;;;;;;;105.53;49.42;;;;;;;;;;5031316;28;20102;-80
2023/01/10 08:06:29;;;;;;;114.75;56.92;;;;;;;;;;5039038;28;20014;-80
2023/01/10 08:08:55;;;;;;;143.60;67.07;;;;;;;;;;5045285;28;20568;-82
2023/01/10 08:11:20;;;;;;;128.10;61.63;;;;;;;;;;5035521;28;20042;-81
2023/01/10 08:13:46;;;;;;;124.10;60.72;;;;;;;;;;5026049;28;20133;-81
2023/01/10 08:16:11;;;;;;;128.77;63.83;;;;;;;;;;5023649;28;20042;-80
2023/01/10 08:18:41;;;;;;;179.35;87.10;;;;;;;;;;5023978;28;20041;-79
2023/01/10 08:21:06;;;;;;;161.27;77.13;;;;;;;;;;5026577;28;20558;-81
2023/01/10 08:23:32;;;;;;;159.10;78.03;;;;;;;;;;5033736;28;20045;-83
2023/01/10 08:25:58;;;;;;;142.27;65.43;;;;;;;;;;5021598;28;20061;-81
2023/01/10 08:28:24;;;;;;;119.72;55.42;;;;;;;;;;5027104;28;20037;-84
2023/01/10 08:30:54;;;;;;;124.07;54.45;;;;;;;;;;5028534;28;20018;-81
2023/01/10 08:33:19;;;;;;;107.72;52.78;;;;;;;;;;5030832;28;20034;-83
2023/01/10 08:35:45;;;;;;;145.80;73.20;;;;;;;;;;5041671;28;20116;-82
2023/01/10 08:38:11;;;;;;;148.27;72.35;;;;;;;;;;5024522;28;20513;-82
2023/01/10 08:40:36;;;;;;;129.90;64.78;;;;;;;;;;5019942;28;20030;-85
2023/01/10 08:43:06;;;;;;;150.48;76.97;;;;;;;;;;5037478;28;20083;-83
2023/01/10 08:45:32;;;;;;;118.65;56.03;;;;;;;;;;5034822;28;20098;-81
2023/01/10 08:47:58;;;;;;;101.15;48.88;;;;;;;;;;5030895;28;20087;-80
2023/01/10 08:50:26;;;;;;;90.55;44.15;;;;;;;;;;5031924;28;20084;-84
2023/01/10 08:52:51;;;;;;;91.63;41.70;;;;;;;;;;5019497;28;20037;-84
2023/01/10 08:55:18;;;;;;;92.03;41.33;;;;;;;;;;5046679;28;20033;-83
2023/01/10 08:57:45;;;;;;;84.93;38.40;;;;;;;;;;5006547;28;20040;-80
2023/01/10 09:00:12;;;;;;;94.78;40.20;;;;;;;;;;5029866;28;20447;-80
2023/01/10 09:02:40;;;;;;;83.05;37.63;;;;;;;;;;5033406;28;20021;-80
2023/01/10 09:05:06;;;;;;;79.50;36.40;;;;;;;;;;5030451;28;20037;-82
2023/01/10 09:07:35;;;;;;;81.60;36.95;;;;;;;;;;5019922;28;20030;-79
2023/01/10 09:10:04;;;;;;;77.65;36.85;;;;;;;;;;5035733;28;20402;-81
2023/01/10 09:15:13;;;;;;;88.03;42.83;;;;;;;;;;5041435;28;20053;-82
2023/01/10 09:17:39;;;;;;;81.85;38.50;;;;;;;;;;5019231;28;20026;-80
2023/01/10 09:20:08;;;;;;;75.47;37.00;;;;;;;;;;5014958;28;20033;-80
2023/01/10 09:22:40;;;;;;;83.77;38.27;;;;;;;;;;5020716;28;20064;-79
2023/01/10 09:25:06;;;;;;;83.40;37.67;;;;;;;;;;5000160;28;20029;-81
2023/01/10 09:27:36;;;;;;;87.30;39.47;;;;;;;;;;5031600;28;20561;-82
2023/01/10 09:30:08;;;;;;;102.45;46.10;;;;;;;;;;5017319;28;20041;-80
2023/01/10 09:32:34;;;;;;;102.70;47.22;;;;;;;;;;5033767;28;20033;-80
2023/01/10 09:34:59;;;;;;;91.72;44.97;;;;;;;;;;5037777;28;20025;-80
2023/01/10 09:37:25;;;;;;;99.07;43.80;;;;;;;;;;5038334;28;20029;-80
2023/01/10 09:39:51;;;;;;;105.47;49.25;;;;;;;;;;5039384;28;20078;-80
2023/01/10 09:43:02;;;;;;;105.97;50.35;;;;;;;;;;5034451;28;20060;-81
2023/01/10 09:45:54;;;;;;;107.47;48.78;;;;;;;;;;5025221;28;20041;-79
2023/01/10 09:48:51;;;;;;;102.05;47.35;;;;;;;;;;4991673;28;20040;-81
2023/01/10 09:51:32;;;;;;;106.00;49.40;;;;;;;;;;5021960;28;20032;-80
2023/01/10 09:53:59;;;;;;;129.43;59.75;;;;;;;;;;5027867;28;20084;-81
2023/01/10 09:56:25;;;;;;;138.40;69.68;;;;;;;;;;5045846;28;20033;-82
2023/01/10 09:58:51;;;;;;;137.32;68.68;;;;;;;;;;5032413;28;20037;-81
2023/01/10 10:01:22;;;;;;;133.93;68.55;;;;;;;;;;5031086;28;20064;-82
2023/01/10 10:03:52;;;;;;;116.57;57.38;;;;;;;;;;4996135;28;20079;-83
2023/01/10 10:06:18;;;;;;;101.35;53.33;;;;;;;;;;5028755;28;20033;-81
2023/01/10 10:08:45;;;;;;;106.13;52.47;;;;;;;;;;5028365;28;20032;-81
2023/01/10 10:11:26;;;;;;;119.72;54.20;;;;;;;;;;5035712;28;20025;-82
2023/01/10 10:14:16;;;;;;;107.55;53.70;;;;;;;;;;5028664;28;20316;-82
2023/01/10 10:17:04;;;;;;;108.73;49.63;;;;;;;;;;5028951;28;20539;-82
2023/01/10 10:19:42;;;;;;;86.65;41.95;;;;;;;;;;5028958;28;20326;-82
2023/01/10 10:22:15;;;;;;;89.95;40.13;;;;;;;;;;5030429;28;20049;-81
2023/01/10 10:25:07;;;;;;;82.28;37.22;;;;;;;;;;5014870;28;20410;-82
2023/01/10 10:28:12;;;;;;;69.38;34.28;;;;;;;;;;5017458;28;20029;-82
2023/01/10 10:30:42;;;;;;;69.47;32.53;;;;;;;;;;5009911;28;20056;-81
2023/01/10 10:33:20;;;;;;;62.10;31.25;;;;;;;;;;5032094;28;20447;-81
2023/01/10 10:36:01;;;;;;;68.43;33.20;;;;;;;;;;5042687;28;20036;-80
2023/01/10 10:38:32;;;;;;;72.88;33.70;;;;;;;;;;5012046;28;20116;-82
2023/01/10 10:41:01;;;;;;;74.78;35.45;;;;;;;;;;5030791;28;20030;-83
2023/01/10 10:43:37;;;;;;;76.78;37.67;;;;;;;;;;5043433;28;20041;-81
2023/01/10 10:46:10;;;;;;;83.60;39.03;;;;;;;;;;5017914;28;20522;-81
2023/01/10 10:48:56;;;;;;;76.35;37.75;;;;;;;;;;5021060;28;20124;-82
2023/01/10 10:51:29;;;;;;;81.13;38.78;;;;;;;;;;5045325;28;20060;-80
2023/01/10 10:53:55;;;;;;;79.35;40.08;;;;;;;;;;5036821;28;20039;-80
2023/01/10 10:56:22;;;;;;;76.20;38.45;;;;;;;;;;5008175;28;20168;-82
2023/01/10 10:58:48;;;;;;;90.50;45.72;;;;;;;;;;5012139;28;20041;-80
2023/01/10 11:01:14;;;;;;;105.35;51.55;;;;;;;;;;5029533;28;20300;-81
2023/01/10 11:04:09;;;;;;;135.98;60.97;;;;;;;;;;5033603;28;20036;-82
2023/01/10 11:06:35;;;;;;;123.20;57.78;;;;;;;;;;5012371;28;20288;-81
2023/01/10 11:09:02;;;;;;;103.90;47.90;;;;;;;;;;5039997;28;20033;-80
2023/01/10 11:11:30;;;;;;;107.50;50.70;;;;;;;;;;5031718;28;20077;-82
2023/01/10 11:14:00;;;;;;;109.75;54.30;;;;;;;;;;5027906;28;20279;-81
2023/01/10 11:16:30;;;;;;;109.15;50.50;;;;;;;;;;5027183;28;20123;-81
2023/01/10 11:19:18;;;;;;;101.57;51.30;;;;;;;;;;5027729;28;20448;-80
2023/01/10 11:22:01;;;;;;;111.07;53.67;;;;;;;;;;5029418;28;20056;-80
2023/01/10 11:24:38;;;;;;;108.97;51.97;;;;;;;;;;5032334;28;20336;-78
2023/01/10 11:27:15;;;;;;;105.95;51.13;;;;;;;;;;5019263;28;20033;-80
2023/01/10 11:29:45;;;;;;;116.72;56.05;;;;;;;;;;5001566;28;20045;-81
2023/01/10 11:32:14;;;;;;;136.33;61.50;;;;;;;;;;5033053;28;20025;-80
2023/01/10 11:34:40;;;;;;;132.57;63.28;;;;;;;;;;5036494;28;20025;-80
2023/01/10 11:37:36;;;;;;;135.10;63.70;;;;;;;;;;5039829;28;20495;-78
2023/01/10 11:40:22;;;;;;;132.93;64.18;;;;;;;;;;5023526;28;20037;-81
2023/01/10 11:42:49;;;;;;;139.30;66.07;;;;;;;;;;5022169;28;20091;-82
2023/01/10 11:45:17;;;;;;;168.20;78.45;;;;;;;;;;5012670;28;20463;-80
2023/01/10 11:47:48;;;;;;;179.73;84.93;;;;;;;;;;5015888;28;20285;-81
2023/01/10 11:50:18;;;;;;;188.27;87.63;;;;;;;;;;5009759;28;20045;-80
2023/01/10 11:52:44;;;;;;;191.88;92.53;;;;;;;;;;4992374;28;20038;-81
2023/01/10 11:55:10;;;;;;;196.90;92.47;;;;;;;;;;5008577;28;20026;-80
2023/01/10 11:57:35;;;;;;;197.13;94.38;;;;;;;;;;5008150;28;20300;-81
2023/01/10 12:00:01;;;;;;;198.52;91.80;;;;;;;;;;5007122;28;20038;-81
2023/01/10 12:02:32;;;;;;;170.55;81.55;;;;;;;;;;5009197;28;20117;-81
2023/01/10 12:04:59;;;;;;;168.43;76.10;;;;;;;;;;5014566;28;20026;-81
2023/01/10 12:07:24;;;;;;;143.32;66.70;;;;;;;;;;5016933;28;20037;-81
2023/01/10 12:09:56;;;;;;;148.57;69.00;;;;;;;;;;5014321;28;20026;-81
2023/01/10 12:12:26;;;;;;;133.32;61.58;;;;;;;;;;5014815;28;20038;-81
2023/01/10 12:14:56;;;;;;;125.70;60.30;;;;;;;;;;5015228;28;20137;-79
2023/01/10 12:17:27;;;;;;;;;;;;;;;;;;5000096;28;20388;-81
2023/01/10 12:19:55;;;;;;;104.18;50.30;;;;;;;;;;5027690;28;19916;-81
2023/01/10 12:22:33;;;;;;;108.22;49.95;;;;;;;;;;5018989;28;20467;-80
2023/01/10 12:24:59;;;;;;;103.35;49.28;;;;;;;;;;5048504;28;20028;-81
2023/01/10 12:27:25;;;;;;;102.70;52.67;;;;;;;;;;5026702;28;20040;-80
2023/01/10 12:30:04;;;;;;;121.90;60.70;;;;;;;;;;5032807;28;20045;-80
2023/01/10 12:32:35;;;;;;;129.10;64.18;;;;;;;;;;5035915;28;20127;-80
2023/01/10 12:35:05;;;;;;;;;;;;;;;;;;5033028;28;20034;-81
2023/01/10 12:37:55;;;;;;;141.57;70.72;;;;;;;;;;5033516;28;20012;-81
2023/01/10 12:40:41;;;;;;;149.52;72.85;;;;;;;;;;5033857;28;20165;-81
2023/01/10 12:45:58;;;;;;;149.85;77.25;;;;;;;;;;5034956;28;20076;-83
2023/01/10 12:48:38;;;;;;;162.35;79.13;;;;;;;;;;5014122;28;20099;-82
2023/01/10 12:51:05;;;;;;;146.15;75.70;;;;;;;;;;5029915;28;20124;-82
2023/01/10 12:54:00;;;;;;;155.93;78.63;;;;;;;;;;5014288;28;20037;-81
2023/01/10 12:56:25;;;;;;;157.38;81.43;;;;;;;;;;5030273;28;20045;-82
2023/01/10 12:58:53;;;;;;;148.38;79.07;;;;;;;;;;5014064;28;20482;-81
2023/01/10 13:01:23;;;;;;;148.95;77.90;;;;;;;;;;5032005;28;20029;-81
2023/01/10 13:04:05;;;;;;;144.88;78.60;;;;;;;;;;5036395;28;20112;-83
2023/01/10 13:06:36;;;;;;;134.30;73.05;;;;;;;;;;5034907;28;20041;-82
2023/01/10 13:09:16;;;;;;;141.50;76.20;;;;;;;;;;5034967;28;20495;-82
2023/01/10 13:11:49;;;;;;;146.80;78.22;;;;;;;;;;5034909;28;20120;-81
2023/01/10 13:14:16;;;;;;;140.77;75.75;;;;;;;;;;5034503;28;20470;-81
2023/01/10 13:16:51;;;;;;;138.98;70.90;;;;;;;;;;5034758;28;20033;-82
2023/01/10 13:19:20;;;;;;;128.32;65.38;;;;;;;;;;5021444;28;20060;-80
2023/01/10 13:21:46;;;;;;;128.38;66.38;;;;;;;;;;5037889;28;20128;-82
2023/01/10 13:24:14;;;;;;;115.07;58.63;;;;;;;;;;5021111;28;20083;-80
2023/01/10 13:26:51;;;;;;;99.47;50.40;;;;;;;;;;5017774;28;20091;-81
2023/01/10 13:29:30;;;;;;;87.18;45.83;;;;;;;;;;5012856;28;20053;-81
2023/01/10 13:32:00;;;;;;;86.85;44.15;;;;;;;;;;4981047;28;20034;-81
2023/01/10 13:34:31;;;;;;;73.95;41.13;;;;;;;;;;4996633;28;20096;-81
2023/01/10 13:36:57;;;;;;;;;;;;;;;;;;4997777;28;20057;-80
2023/01/10 13:39:30;;;;;;;61.22;31.65;;;;;;;;;;5013690;28;19967;-80
2023/01/10 13:45:03;;;;;;;59.10;29.67;;;;;;;;;;5015253;28;20129;-80
2023/01/10 13:47:38;;;;;;;61.80;30.65;;;;;;;;;;5014518;28;20444;-80
2023/01/10 13:50:27;;;;;;;54.65;29.15;;;;;;;;;;5013398;28;20034;-80
2023/01/10 13:53:11;;;;;;;51.80;27.88;;;;;;;;;;5013688;28;20471;-81
2023/01/10 13:55:45;;;;;;;53.28;28.63;;;;;;;;;;5013639;28;20045;-80
2023/01/10 13:58:16;;;;;;;57.38;30.67;;;;;;;;;;5013172;28;20455;-82
2023/01/10 14:03:46;;;;;;;58.75;30.63;;;;;;;;;;5013484;28;20095;-81
2023/01/10 14:06:22;;;;;;;51.63;29.48;;;;;;;;;;5015314;28;20432;-81
2023/01/10 14:09:00;;;;;;;58.10;27.63;;;;;;;;;;5014751;28;20113;-82
2023/01/10 14:11:41;;;;;;;60.17;31.90;;;;;;;;;;5014704;28;20076;-81
2023/01/10 14:14:26;;;;;;;60.40;32.58;;;;;;;;;;5013631;28;20026;-80
2023/01/10 14:16:53;;;;;;;74.32;41.50;;;;;;;;;;5013978;28;20571;-81
2023/01/10 14:19:28;;;;;;;85.45;44.83;;;;;;;;;;5013155;28;20392;-80
2023/01/10 14:21:55;;;;;;;144.65;75.28;;;;;;;;;;5014364;28;20391;-81
2023/01/10 14:24:27;;;;;;;95.95;50.85;;;;;;;;;;5014157;28;20033;-81
2023/01/10 14:26:54;;;;;;;162.35;83.72;;;;;;;;;;5013507;28;20057;-82
2023/01/10 14:29:19;;;;;;;93.38;50.65;;;;;;;;;;4997152;28;20479;-81
2023/01/10 14:31:48;;;;;;;76.70;41.75;;;;;;;;;;5013189;28;20030;-82
2023/01/10 14:34:24;;;;;;;61.55;33.03;;;;;;;;;;4997608;28;20367;-82
2023/01/10 14:37:06;;;;;;;62.25;32.75;;;;;;;;;;4996925;28;20460;-81
2023/01/10 14:39:31;;;;;;;55.90;31.90;;;;;;;;;;5013257;28;20037;-81
2023/01/10 14:41:59;;;;;;;61.00;34.90;;;;;;;;;;5013736;28;20029;-81
2023/01/10 14:44:57;;;;;;;51.50;29.95;;;;;;;;;;4998107;28;20033;-81
2023/01/10 14:47:27;;;;;;;50.80;29.42;;;;;;;;;;4993310;28;20048;-81
2023/01/10 14:49:56;;;;;;;;;;;;;;;;;;5014684;28;20084;-81
2023/01/10 14:52:23;;;;;;;53.65;29.33;;;;;;;;;;5014349;28;19918;-81
2023/01/10 14:55:11;;;;;;;61.65;29.20;;;;;;;;;;5013171;28;20061;-82
2023/01/10 14:57:37;;;;;;;68.25;31.80;;;;;;;;;;5014704;28;20057;-81
2023/01/10 15:00:14;;;;;;;64.50;31.90;;;;;;;;;;5013341;28;20088;-81
2023/01/10 15:02:46;;;;;;;70.10;35.88;;;;;;;;;;5013304;28;20108;-81
2023/01/10 15:05:24;;;;;;;80.57;41.97;;;;;;;;;;5013016;28;20034;-81